createdAt,value
2018-01-20T00:00:09.740Z,60.90
2018-01-20T00:02:36.140Z,61.20
2018-01-20T00:05:02.778Z,61.80
2018-01-20T00:07:29.149Z,61.90
2018-01-20T00:10:07.876Z,62.00
2018-01-20T00:12:34.316Z,62.30
2018-01-20T00:15:00.695Z,62.00
2018-01-20T00:17:27.382Z,61.90
2018-01-20T00:19:53.860Z,61.70
2018-01-20T00:22:22.375Z,61.50
2018-01-20T00:24:55.224Z,61.10
2018-01-20T00:27:22.080Z,61.50
2018-01-20T00:29:48.624Z,61.80
2018-01-20T00:32:15.200Z,61.80
2018-01-20T00:34:41.737Z,62.50
2018-01-20T00:37:08.211Z,62.30
2018-01-20T00:39:34.812Z,61.90
2018-01-20T00:42:01.356Z,61.70
2018-01-20T00:44:27.872Z,62.20
2018-01-20T00:46:54.739Z,62.10
2018-01-20T00:49:21.196Z,62.30
2018-01-20T00:51:48.352Z,62.10
2018-01-20T00:54:14.888Z,62.20
2018-01-20T00:56:41.426Z,62.50
2018-01-20T00:59:08.000Z,62.80
2018-01-20T01:01:36.641Z,62.30
2018-01-20T01:04:03.336Z,62.80
2018-01-20T01:06:30.081Z,62.90
2018-01-20T01:08:56.625Z,63.00
2018-01-20T01:11:23.090Z,62.50
2018-01-20T01:13:49.619Z,62.60
2018-01-20T01:16:16.204Z,63.00
2018-01-20T01:18:43.043Z,63.50
2018-01-20T01:21:09.839Z,64.20
2018-01-20T01:23:36.384Z,64.20
2018-01-20T01:26:04.812Z,63.90
2018-01-20T01:28:32.229Z,64.10
2018-01-20T01:30:58.749Z,64.10
2018-01-20T01:33:25.390Z,64.10
2018-01-20T01:35:51.879Z,64.40
2018-01-20T01:38:18.356Z,64.40
2018-01-20T01:40:44.890Z,64.70
2018-01-20T01:43:11.308Z,64.80
2018-01-20T01:45:38.273Z,64.60
2018-01-20T01:48:04.797Z,64.50
2018-01-20T01:50:31.683Z,64.90
2018-01-20T01:52:58.112Z,64.20
2018-01-20T01:55:24.704Z,64.20
2018-01-20T01:57:51.568Z,64.60
2018-01-20T02:00:18.108Z,65.00
2018-01-20T02:02:44.467Z,64.80
2018-01-20T02:05:10.855Z,65.00
2018-01-20T02:07:37.391Z,65.60
2018-01-20T02:10:03.983Z,65.80
2018-01-20T02:12:30.464Z,66.20
2018-01-20T02:14:57.013Z,66.80
2018-01-20T02:17:23.543Z,67.00
2018-01-20T02:19:50.085Z,66.90
2018-01-20T02:22:16.603Z,66.60
2018-01-20T02:24:43.164Z,67.90
2018-01-20T02:27:09.735Z,69.10
2018-01-20T02:29:36.198Z,69.50
2018-01-20T02:32:02.729Z,70.20
2018-01-20T02:34:29.288Z,70.80
2018-01-20T02:36:55.856Z,69.90
2018-01-20T02:39:23.648Z,69.90
2018-01-20T02:41:50.099Z,70.00
2018-01-20T02:44:16.748Z,70.30
2018-01-20T02:46:43.176Z,70.30
2018-01-20T02:49:09.604Z,69.40
2018-01-20T02:51:36.920Z,69.10
2018-01-20T02:54:03.469Z,69.80
2018-01-20T02:56:30.301Z,69.80
2018-01-20T02:58:56.740Z,69.40
2018-01-20T03:01:23.340Z,69.70
2018-01-20T03:03:49.899Z,69.80
2018-01-20T03:06:16.444Z,69.30
2018-01-20T03:08:42.935Z,69.10
2018-01-20T03:11:09.523Z,69.00
2018-01-20T03:13:36.097Z,68.80
2018-01-20T03:16:02.540Z,68.90
2018-01-20T03:18:29.109Z,69.70
2018-01-20T03:20:56.397Z,69.80
2018-01-20T03:23:23.452Z,69.00
2018-01-20T03:25:49.911Z,69.10
2018-01-20T03:28:16.476Z,68.80
2018-01-20T03:30:42.964Z,69.00
2018-01-20T03:33:09.504Z,68.50
2018-01-20T03:35:36.065Z,68.50
2018-01-20T03:38:02.584Z,69.00
2018-01-20T03:40:29.414Z,69.20
2018-01-20T03:42:56.012Z,69.10
2018-01-20T03:45:22.535Z,68.10
2018-01-20T03:47:48.982Z,68.10
2018-01-20T03:50:15.557Z,67.20
2018-01-20T03:52:42.248Z,67.00
2018-01-20T03:55:08.977Z,67.10
2018-01-20T03:57:35.537Z,67.00
2018-01-20T04:00:02.044Z,66.80
2018-01-20T04:02:29.447Z,67.10
2018-01-20T04:04:55.876Z,67.60
2018-01-20T04:07:22.866Z,67.60
2018-01-20T04:09:49.468Z,67.40
2018-01-20T04:15:05.340Z,66.00
2018-01-20T04:17:32.080Z,66.60
2018-01-20T04:19:58.556Z,66.60
2018-01-20T04:22:25.104Z,66.40
2018-01-20T04:24:51.921Z,66.70
2018-01-20T04:27:18.811Z,67.10
2018-01-20T04:29:45.312Z,66.40
2018-01-20T04:32:11.950Z,65.90
2018-01-20T04:34:38.414Z,65.90
2018-01-20T04:37:04.968Z,66.40
2018-01-20T04:39:31.528Z,66.40
2018-01-20T04:41:57.979Z,66.30
2018-01-20T04:44:24.515Z,66.30
2018-01-20T04:46:51.103Z,65.90
2018-01-20T04:49:17.651Z,66.00
2018-01-20T04:51:44.138Z,65.80
2018-01-20T04:54:10.723Z,65.60
2018-01-20T04:56:37.288Z,65.80
2018-01-20T04:59:03.729Z,65.90
2018-01-20T05:01:30.281Z,65.80
2018-01-20T05:03:56.812Z,65.60
2018-01-20T05:06:23.468Z,65.40
2018-01-20T05:08:49.847Z,65.50
2018-01-20T05:11:16.417Z,65.10
2018-01-20T05:13:42.935Z,65.60
2018-01-20T05:16:09.524Z,65.60
2018-01-20T05:18:36.011Z,65.10
2018-01-20T05:21:02.567Z,64.90
2018-01-20T05:23:29.176Z,64.50
2018-01-20T05:25:55.684Z,64.60
2018-01-20T05:28:22.432Z,64.70
2018-01-20T05:30:49.327Z,64.80
2018-01-20T05:33:15.831Z,64.70
2018-01-20T05:35:42.460Z,64.80
2018-01-20T05:38:08.920Z,64.60
2018-01-20T05:40:35.556Z,64.90
2018-01-20T05:43:01.990Z,66.10
2018-01-20T05:45:28.415Z,66.70
2018-01-20T05:47:55.043Z,66.30
2018-01-20T05:50:21.629Z,66.70
2018-01-20T05:52:48.131Z,66.50
2018-01-20T05:55:14.861Z,66.60
2018-01-20T05:57:41.591Z,65.90
2018-01-20T06:00:08.092Z,64.90
2018-01-20T06:02:34.620Z,65.80
2018-01-20T06:05:01.080Z,66.10
2018-01-20T06:07:27.945Z,66.70
2018-01-20T06:09:54.476Z,66.90
2018-01-20T06:12:21.076Z,66.70
2018-01-20T06:14:47.646Z,66.50
2018-01-20T06:17:14.079Z,66.80
2018-01-20T06:19:40.680Z,66.40
2018-01-20T06:22:07.510Z,65.70
2018-01-20T06:24:34.101Z,65.60
2018-01-20T06:27:01.768Z,65.80
2018-01-20T06:29:30.160Z,66.00
2018-01-20T06:31:56.703Z,65.90
2018-01-20T06:34:23.199Z,65.90
2018-01-20T06:36:49.744Z,66.20
2018-01-20T06:39:16.283Z,66.60
2018-01-20T06:41:42.812Z,66.70
2018-01-20T06:44:09.561Z,66.90
2018-01-20T06:46:36.244Z,67.10
2018-01-20T06:49:03.763Z,67.10
2018-01-20T06:51:30.854Z,67.10
2018-01-20T06:53:57.330Z,67.20
2018-01-20T06:56:23.768Z,67.10
2018-01-20T06:58:50.511Z,66.70
2018-01-20T07:01:16.951Z,66.50
2018-01-20T07:03:43.516Z,66.40
2018-01-20T07:06:10.124Z,66.30
2018-01-20T07:08:36.551Z,66.20
2018-01-20T07:11:03.171Z,66.40
2018-01-20T07:13:29.611Z,66.30
2018-01-20T07:15:56.501Z,66.00
2018-01-20T07:18:23.054Z,66.20
2018-01-20T07:20:49.420Z,67.10
2018-01-20T07:23:16.119Z,67.90
2018-01-20T07:25:42.972Z,69.50
2018-01-20T07:28:09.488Z,70.20
2018-01-20T07:30:35.911Z,70.50
2018-01-20T07:33:02.518Z,71.30
2018-01-20T07:35:29.028Z,72.00
2018-01-20T07:37:55.628Z,72.80
2018-01-20T07:40:22.100Z,73.00
2018-01-20T07:42:48.989Z,73.10
2018-01-20T07:45:15.560Z,72.50
2018-01-20T07:47:42.036Z,72.20
2018-01-20T07:50:08.578Z,71.50
2018-01-20T07:52:35.144Z,71.70
2018-01-20T07:55:01.681Z,72.60
2018-01-20T07:57:28.212Z,73.40
2018-01-20T07:59:55.701Z,73.50
2018-01-20T08:02:22.163Z,73.50
2018-01-20T08:04:48.764Z,74.10
2018-01-20T08:07:15.536Z,74.50
2018-01-20T08:09:43.351Z,73.70
2018-01-20T08:12:09.850Z,73.20
2018-01-20T08:14:36.744Z,72.90
2018-01-20T08:17:03.320Z,72.30
2018-01-20T08:19:29.840Z,72.10
2018-01-20T08:22:02.347Z,72.50
2018-01-20T08:24:28.960Z,72.40
2018-01-20T08:26:55.842Z,72.90
2018-01-20T08:29:22.288Z,73.10
2018-01-20T08:31:49.179Z,73.70
2018-01-20T08:34:15.828Z,73.80
2018-01-20T08:36:43.226Z,73.80
2018-01-20T08:39:09.720Z,74.00
2018-01-20T08:41:36.632Z,74.10
2018-01-20T08:44:03.084Z,74.10
2018-01-20T08:46:29.984Z,73.80
2018-01-20T08:48:56.455Z,73.90
2018-01-20T08:51:23.084Z,74.00
2018-01-20T08:53:49.549Z,74.40
2018-01-20T08:56:16.432Z,74.70
2018-01-20T08:58:43.244Z,74.80
2018-01-20T09:03:59.393Z,74.20
2018-01-20T09:06:26.277Z,74.10
2018-01-20T09:08:53.364Z,74.10
2018-01-20T09:11:20.191Z,73.70
2018-01-20T09:13:47.000Z,72.90
2018-01-20T09:16:13.843Z,72.40
2018-01-20T09:18:40.481Z,72.20
2018-01-20T09:21:08.152Z,71.70
2018-01-20T09:23:34.687Z,70.60
2018-01-20T09:26:01.335Z,69.90
2018-01-20T09:28:27.804Z,69.50
2018-01-20T09:30:54.286Z,69.30
2018-01-20T09:33:20.712Z,69.10
2018-01-20T09:35:47.364Z,68.10
2018-01-20T09:38:14.201Z,68.30
2018-01-20T09:40:41.032Z,67.00
2018-01-20T09:43:08.594Z,67.10
2018-01-20T09:45:36.273Z,65.90
2018-01-20T09:48:02.913Z,65.90
2018-01-20T09:50:29.336Z,65.70
2018-01-20T09:52:55.878Z,66.10
2018-01-20T09:55:22.404Z,65.60
2018-01-20T09:57:49.309Z,65.40
2018-01-20T10:00:15.835Z,65.40
2018-01-20T10:02:42.356Z,65.10
2018-01-20T10:05:08.788Z,65.10
2018-01-20T10:07:35.704Z,64.70
2018-01-20T10:10:02.242Z,64.50
2018-01-20T10:12:28.765Z,64.10
2018-01-20T10:14:56.597Z,63.90
2018-01-20T10:17:23.156Z,63.40
2018-01-20T10:19:50.595Z,63.50
2018-01-20T10:22:17.355Z,63.70
2018-01-20T10:24:43.901Z,64.10
2018-01-20T10:27:10.423Z,64.20
2018-01-20T10:29:37.902Z,64.20
2018-01-20T10:32:04.476Z,65.00
2018-01-20T10:34:31.264Z,65.70
2018-01-20T10:36:57.808Z,66.70
2018-01-20T10:39:24.331Z,67.20
2018-01-20T10:41:50.907Z,68.00
2018-01-20T10:44:17.464Z,68.60
2018-01-20T10:46:43.953Z,69.10
2018-01-20T10:49:10.552Z,69.60
2018-01-20T10:51:37.016Z,69.20
2018-01-20T10:54:03.699Z,69.00
2018-01-20T10:56:30.156Z,69.10
2018-01-20T10:58:56.975Z,69.80
2018-01-20T11:01:23.471Z,69.70
2018-01-20T11:03:50.042Z,70.20
2018-01-20T11:06:16.531Z,71.20
2018-01-20T11:08:43.391Z,71.70
2018-01-20T11:11:10.024Z,72.50
2018-01-20T11:13:36.520Z,72.70
2018-01-20T11:16:03.013Z,73.10
2018-01-20T11:18:29.881Z,73.10
2018-01-20T11:20:56.348Z,73.80
2018-01-20T11:23:22.968Z,74.30
2018-01-20T11:25:49.721Z,74.80
2018-01-20T11:28:16.332Z,75.10
2018-01-20T11:30:42.818Z,74.70
2018-01-20T11:33:09.363Z,74.20
2018-01-20T11:35:35.892Z,74.30
2018-01-20T11:38:02.396Z,73.80
2018-01-20T11:40:28.944Z,73.60
2018-01-20T11:42:55.501Z,74.00
2018-01-20T11:45:22.128Z,74.20
2018-01-20T11:47:49.755Z,74.60
2018-01-20T11:50:16.312Z,74.40
2018-01-20T11:52:43.152Z,74.50
2018-01-20T11:55:09.683Z,74.30
2018-01-20T11:57:36.305Z,74.70
2018-01-20T12:00:03.719Z,75.30
2018-01-20T12:02:30.319Z,75.70
2018-01-20T12:04:56.778Z,76.30
2018-01-20T12:07:23.140Z,76.40
2018-01-20T12:09:49.843Z,76.80
2018-01-20T12:12:16.427Z,77.20
2018-01-20T12:14:42.914Z,77.90
2018-01-20T12:17:09.420Z,77.60
2018-01-20T12:19:36.059Z,77.50
2018-01-20T12:22:02.543Z,77.80
2018-01-20T12:24:29.004Z,78.30
2018-01-20T12:26:55.991Z,79.20
2018-01-20T12:29:22.449Z,79.90
2018-01-20T12:31:48.984Z,81.00
2018-01-20T12:34:15.512Z,81.80
2018-01-20T12:36:42.175Z,83.00
2018-01-20T12:39:08.944Z,84.10
2018-01-20T12:41:35.435Z,84.90
2018-01-20T12:44:02.309Z,84.90
2018-01-20T12:46:30.360Z,85.30
2018-01-20T12:48:56.875Z,86.50
2018-01-20T12:51:23.415Z,86.40
2018-01-20T12:53:50.332Z,86.30
2018-01-20T12:56:16.810Z,86.90
2018-01-20T12:58:43.306Z,86.40
2018-01-20T13:01:09.863Z,86.20
2018-01-20T13:03:36.440Z,85.60
2018-01-20T13:06:03.202Z,85.70
2018-01-20T13:08:29.759Z,86.30
2018-01-20T13:10:56.704Z,86.90
2018-01-20T13:13:23.084Z,86.70
2018-01-20T13:15:49.722Z,86.70
2018-01-20T13:18:16.223Z,86.80
2018-01-20T13:20:43.028Z,86.50
2018-01-20T13:23:10.150Z,87.00
2018-01-20T13:25:36.781Z,87.20
2018-01-20T13:28:03.627Z,87.60
2018-01-20T13:30:30.083Z,87.60
2018-01-20T13:32:56.822Z,88.40
2018-01-20T13:35:23.844Z,89.20
2018-01-20T13:37:50.371Z,89.20
2018-01-20T13:40:16.869Z,89.20
2018-01-20T13:42:43.248Z,89.30
2018-01-20T13:45:09.604Z,88.70
2018-01-20T13:47:36.483Z,89.40
2018-01-20T13:50:03.300Z,89.60
2018-01-20T13:52:29.753Z,89.70
2018-01-20T13:54:56.682Z,89.10
2018-01-20T13:57:23.645Z,89.80
2018-01-20T13:59:50.045Z,89.40
2018-01-20T14:02:16.582Z,89.50
2018-01-20T14:04:43.536Z,90.20
2018-01-20T14:07:10.033Z,89.80
2018-01-20T14:09:36.556Z,90.20
2018-01-20T14:14:31.436Z,90.30
2018-01-20T14:19:26.380Z,90.30
2018-01-20T14:21:53.207Z,90.70
2018-01-20T14:24:19.765Z,90.70
2018-01-20T14:26:46.287Z,90.60
2018-01-20T14:29:13.172Z,91.30
2018-01-20T14:31:39.651Z,91.40
2018-01-20T14:34:06.164Z,91.70
2018-01-20T14:36:32.666Z,92.50
2018-01-20T14:39:00.241Z,92.40
2018-01-20T14:41:26.749Z,92.50
2018-01-20T14:43:53.290Z,92.30
2018-01-20T14:46:21.278Z,93.00
2018-01-20T14:48:47.823Z,93.00
2018-01-20T14:51:14.371Z,93.30
2018-01-20T14:53:40.937Z,93.80
2018-01-20T14:56:07.475Z,94.20
2018-01-20T14:58:34.020Z,94.30
2018-01-20T15:01:00.547Z,94.80
2018-01-20T15:03:27.436Z,95.20
2018-01-20T15:05:53.870Z,95.20
2018-01-20T15:08:20.412Z,95.70
2018-01-20T15:10:46.939Z,95.30
2018-01-20T15:13:13.535Z,95.60
2018-01-20T15:15:40.360Z,95.60
2018-01-20T15:18:06.891Z,95.80
2018-01-20T15:20:33.399Z,96.10
2018-01-20T15:23:00.233Z,96.20
2018-01-20T15:25:26.776Z,96.10
2018-01-20T15:27:53.336Z,96.00
2018-01-20T15:30:19.964Z,96.20
2018-01-20T15:32:46.367Z,96.30
2018-01-20T15:35:12.903Z,96.50
2018-01-20T15:37:39.480Z,96.80
2018-01-20T15:40:05.979Z,96.60
2018-01-20T15:42:32.522Z,96.40
2018-01-20T15:44:59.044Z,96.50
2018-01-20T15:47:25.680Z,96.50
2018-01-20T15:49:53.349Z,96.50
2018-01-20T15:52:19.944Z,96.60
2018-01-20T15:54:46.420Z,96.40
2018-01-20T15:57:12.980Z,96.60
2018-01-20T15:59:39.541Z,96.60
2018-01-20T16:02:06.069Z,96.30
2018-01-20T16:04:32.584Z,96.00
2018-01-20T16:06:59.076Z,96.00
2018-01-20T16:09:25.637Z,96.00
2018-01-20T16:11:52.169Z,95.80
2018-01-20T16:14:18.991Z,96.00
2018-01-20T16:16:45.558Z,95.60
2018-01-20T16:19:12.140Z,95.60
2018-01-20T16:21:38.692Z,95.30
2018-01-20T16:24:06.364Z,95.20
2018-01-20T16:26:32.916Z,95.10
2018-01-20T16:28:59.459Z,95.10
2018-01-20T16:31:26.068Z,95.10
2018-01-20T16:33:52.516Z,95.20
2018-01-20T16:36:19.421Z,94.90
2018-01-20T16:38:45.928Z,94.90
2018-01-20T16:41:12.419Z,95.10
2018-01-20T16:43:39.320Z,95.50
2018-01-20T16:46:05.808Z,95.60
2018-01-20T16:48:32.339Z,95.20
2018-01-20T16:50:58.880Z,95.30
2018-01-20T16:53:27.246Z,95.10
2018-01-20T16:55:53.787Z,95.10
2018-01-20T16:58:20.333Z,95.50
2018-01-20T17:00:46.916Z,95.70
2018-01-20T17:03:13.392Z,95.70
2018-01-20T17:05:39.940Z,95.80
2018-01-20T17:08:06.571Z,95.90
2018-01-20T17:10:33.020Z,95.50
2018-01-20T17:13:01.068Z,95.20
2018-01-20T17:15:27.721Z,95.10
2018-01-20T17:17:54.151Z,95.00
2018-01-20T17:20:20.693Z,94.50
2018-01-20T17:22:47.248Z,94.10
2018-01-20T17:25:14.012Z,93.70
2018-01-20T17:27:40.644Z,93.40
2018-01-20T17:30:07.119Z,93.20
2018-01-20T17:32:33.655Z,93.00
2018-01-20T17:35:00.260Z,92.80
2018-01-20T17:37:26.720Z,92.30
2018-01-20T17:39:53.264Z,92.10
2018-01-20T17:42:19.793Z,91.50
2018-01-20T17:44:47.379Z,91.70
2018-01-20T17:47:13.807Z,91.10
2018-01-20T17:49:40.380Z,90.70
2018-01-20T17:52:07.180Z,90.30
2018-01-20T17:54:33.708Z,90.70
2018-01-20T17:57:00.235Z,91.80
2018-01-20T17:59:26.652Z,91.90
2018-01-20T18:01:53.705Z,92.00
2018-01-20T18:04:20.146Z,91.30
2018-01-20T18:06:46.683Z,91.60
2018-01-20T18:09:13.223Z,91.80
2018-01-20T18:11:40.131Z,91.80
2018-01-20T18:14:06.673Z,91.60
2018-01-20T18:16:33.216Z,91.90
2018-01-20T18:18:59.802Z,92.10
2018-01-20T18:21:26.239Z,92.70
2018-01-20T18:23:53.894Z,93.60
2018-01-20T18:26:20.511Z,94.40
2018-01-20T18:28:47.033Z,94.30
2018-01-20T18:31:13.580Z,94.60
2018-01-20T18:33:40.144Z,94.40
2018-01-20T18:36:06.679Z,94.30
2018-01-20T18:38:33.173Z,94.00
2018-01-20T18:40:59.759Z,93.40
2018-01-20T18:43:26.285Z,93.50
2018-01-20T18:45:53.113Z,93.70
2018-01-20T18:48:19.632Z,94.00
2018-01-20T18:50:46.165Z,93.80
2018-01-20T18:53:12.744Z,93.80
2018-01-20T18:55:40.161Z,93.70
2018-01-20T18:58:06.696Z,93.80
2018-01-20T19:00:33.624Z,94.00
2018-01-20T19:03:00.116Z,93.80
2018-01-20T19:05:26.668Z,93.70
2018-01-20T19:07:54.055Z,93.20
2018-01-20T19:10:20.672Z,92.90
2018-01-20T19:12:48.408Z,93.10
2018-01-20T19:15:15.187Z,92.60
2018-01-20T19:17:41.750Z,92.80
2018-01-20T19:20:08.320Z,93.00
2018-01-20T19:22:35.111Z,93.00
2018-01-20T19:25:01.640Z,92.90
2018-01-20T19:27:28.531Z,92.90
2018-01-20T19:29:55.032Z,92.90
2018-01-20T19:32:21.556Z,92.80
2018-01-20T19:34:48.121Z,92.60
2018-01-20T19:37:16.224Z,91.50
2018-01-20T19:39:42.721Z,91.30
2018-01-20T19:42:09.250Z,91.10
2018-01-20T19:44:35.720Z,91.20
2018-01-20T19:47:02.312Z,90.90
2018-01-20T19:49:29.139Z,90.60
2018-01-20T19:51:56.048Z,90.50
2018-01-20T19:54:22.548Z,90.70
2018-01-20T19:56:49.108Z,91.30
2018-01-20T19:59:15.603Z,91.30
2018-01-20T20:01:44.298Z,91.50
2018-01-20T20:04:11.215Z,91.50
2018-01-20T20:06:37.679Z,91.80
2018-01-20T20:09:04.235Z,91.40
2018-01-20T20:11:31.024Z,90.60
2018-01-20T20:13:57.624Z,90.30
2018-01-20T20:16:24.158Z,89.90
2018-01-20T20:18:50.629Z,90.30
2018-01-20T20:21:17.532Z,90.50
2018-01-20T20:23:43.952Z,90.20
2018-01-20T20:26:10.567Z,89.80
2018-01-20T20:28:37.115Z,89.90
2018-01-20T20:31:03.636Z,90.00
2018-01-20T20:33:30.228Z,90.00
2018-01-20T20:35:56.704Z,90.40
2018-01-20T20:38:23.584Z,91.10
2018-01-20T20:40:50.144Z,91.60
2018-01-20T20:43:16.661Z,91.50
2018-01-20T20:45:43.161Z,92.00
2018-01-20T20:48:09.735Z,92.60
2018-01-20T20:50:36.526Z,92.90
2018-01-20T20:53:03.392Z,92.60
2018-01-20T20:55:29.956Z,92.70
2018-01-20T20:57:56.480Z,92.90
2018-01-20T21:00:22.985Z,93.10
2018-01-20T21:02:49.880Z,93.30
2018-01-20T21:05:16.408Z,93.00
2018-01-20T21:07:42.892Z,92.70
2018-01-20T21:10:09.409Z,92.30
2018-01-20T21:12:36.296Z,92.30
2018-01-20T21:15:02.892Z,92.40
2018-01-20T21:17:29.377Z,91.80
2018-01-20T21:19:56.184Z,91.80
2018-01-20T21:22:22.765Z,92.00
2018-01-20T21:24:49.310Z,92.00
2018-01-20T21:27:15.767Z,91.50
2018-01-20T21:29:42.431Z,91.00
2018-01-20T21:32:08.860Z,90.40
2018-01-20T21:34:35.384Z,89.50
2018-01-20T21:37:02.223Z,88.60
2018-01-20T21:39:28.819Z,88.50
2018-01-20T21:41:55.303Z,88.40
2018-01-20T21:44:21.835Z,88.40
2018-01-20T21:46:48.519Z,88.50
2018-01-20T21:49:15.508Z,89.00
2018-01-20T21:51:42.055Z,89.70
2018-01-20T21:54:08.648Z,89.40
2018-01-20T21:56:36.049Z,89.70
2018-01-20T21:59:02.653Z,89.20
2018-01-20T22:01:29.175Z,88.10
2018-01-20T22:03:55.691Z,87.70
2018-01-20T22:06:23.112Z,87.90
2018-01-20T22:08:49.939Z,86.80
2018-01-20T22:11:16.484Z,86.70
2018-01-20T22:13:43.993Z,86.90
2018-01-20T22:16:10.525Z,87.00
2018-01-20T22:18:36.990Z,87.30
2018-01-20T22:21:03.603Z,86.80
2018-01-20T22:23:30.083Z,86.70
2018-01-20T22:25:58.195Z,86.40
2018-01-20T22:28:24.736Z,86.00
2018-01-20T22:30:51.219Z,84.90
2018-01-20T22:33:17.743Z,86.10
2018-01-20T22:35:44.928Z,86.40
2018-01-20T22:38:11.471Z,86.70
2018-01-20T22:40:38.271Z,86.70
2018-01-20T22:43:04.815Z,86.30
2018-01-20T22:45:31.351Z,86.60
2018-01-20T22:47:58.248Z,86.60
2018-01-20T22:50:24.805Z,86.40
2018-01-20T22:52:51.262Z,86.80
2018-01-20T22:55:18.144Z,87.60
2018-01-20T22:57:44.996Z,87.90
2018-01-20T23:00:11.555Z,88.80
2018-01-20T23:02:39.564Z,89.10
2018-01-20T23:05:06.088Z,89.50
2018-01-20T23:07:32.932Z,89.30
2018-01-20T23:09:59.453Z,88.90
2018-01-20T23:12:26.052Z,88.00
2018-01-20T23:14:52.523Z,87.60
2018-01-20T23:17:19.055Z,87.20
2018-01-20T23:19:45.704Z,86.80
2018-01-20T23:22:12.441Z,86.90
2018-01-20T23:24:38.975Z,85.80
2018-01-20T23:27:05.580Z,85.90
2018-01-20T23:29:32.355Z,85.10
2018-01-20T23:31:58.928Z,84.60
2018-01-20T23:34:25.803Z,84.70
2018-01-20T23:36:52.337Z,84.30
2018-01-20T23:39:19.172Z,85.00
2018-01-20T23:41:45.635Z,86.00
2018-01-20T23:44:12.502Z,86.60
2018-01-20T23:46:40.025Z,86.60
2018-01-20T23:49:07.512Z,86.60
2018-01-20T23:51:33.943Z,86.60
2018-01-20T23:54:00.478Z,86.20
2018-01-20T23:56:27.359Z,85.80
2018-01-20T23:58:53.847Z,86.20
